Time;durP1;ratioP1;P1;durP2;ratioP2;P2;SDS_P1;SDS_P2;PMS_P1;PMS_P2;Temp;Humidity;BMP_temperature;BMP_pressure;BME280_temperature;BME280_humidity;BME280_pressure;Samples;Min_cycle;Max_cycle;Signal;HPM_P1;HPM_P2
2021/03/21 00:06:53;;;;;;;1.20;1.07;;;7.70;99.90;;;;;;20523039;28;20250;-71
2021/03/21 00:16:57;;;;;;;2.67;1.03;;;7.60;99.90;;;;;;20527425;28;20228;-71
2021/03/21 00:27:00;;;;;;;1.13;1.03;;;7.30;99.90;;;;;;20518285;28;20200;-71
2021/03/21 00:37:04;;;;;;;0.97;0.93;;;7.30;99.90;;;;;;20527800;28;20224;-72
2021/03/21 00:47:07;;;;;;;0.40;0.40;;;7.20;99.90;;;;;;20530454;28;20204;-73
2021/03/21 00:57:10;;;;;;;1.37;1.17;;;7.30;99.90;;;;;;20527186;28;20223;-72
2021/03/21 01:07:13;;;;;;;3.63;0.93;;;7.30;99.90;;;;;;20555796;23;20232;-70
2021/03/21 01:17:20;;;;;;;1.47;0.70;;;7.30;99.90;;;;;;20540331;28;20220;-70
2021/03/21 01:27:23;;;;;;;0.60;0.60;;;7.20;99.90;;;;;;20540449;28;20200;-71
2021/03/21 01:37:26;;;;;;;0.97;0.53;;;7.00;99.90;;;;;;20538835;28;20204;-73
2021/03/21 01:47:37;;;;;;;3.10;0.83;;;7.00;99.90;;;;;;20538369;28;20229;-72
2021/03/21 01:57:41;;;;;;;2.20;1.23;;;6.80;99.90;;;;;;20538719;28;20313;-72
2021/03/21 02:08:41;;;;;;;0.40;0.40;;;6.90;99.90;;;;;;20550964;23;20243;-72
2021/03/21 02:18:51;;;;;;;0.60;0.50;;;7.00;99.90;;;;;;20367613;29;20201;-72
2021/03/21 02:29:17;;;;;;;1.37;0.80;;;7.30;99.90;;;;;;20349730;29;20276;-71
2021/03/21 02:39:26;;;;;;;1.40;0.47;;;7.30;99.90;;;;;;20366839;29;20201;-73
2021/03/21 02:49:34;;;;;;;0.87;0.70;;;7.20;99.90;;;;;;20514237;28;20276;-72
2021/03/21 02:59:40;;;;;;;0.37;0.37;;;7.10;99.90;;;;;;20534437;28;20564;-73
2021/03/21 03:09:47;;;;;;;0.70;0.70;;;7.10;99.90;;;;;;20531815;28;20220;-72
2021/03/21 03:19:54;;;;;;;0.30;0.30;;;7.00;99.90;;;;;;20508719;28;20561;-74
2021/03/21 03:30:04;;;;;;;0.77;0.70;;;7.10;99.90;;;;;;20454971;28;20225;-73
2021/03/21 03:40:10;;;;;;;0.20;0.20;;;6.90;99.90;;;;;;20451297;28;20219;-72
2021/03/21 03:50:21;;;;;;;0.20;0.10;;;6.90;99.90;;;;;;20453991;28;20512;-70
2021/03/21 04:00:31;;;;;;;0.43;0.30;;;6.80;99.90;;;;;;20451008;29;20228;-72
2021/03/21 04:10:40;;;;;;;0.57;0.43;;;6.70;99.90;;;;;;20448842;28;20310;-71
2021/03/21 04:20:49;;;;;;;0.57;0.57;;;6.50;99.90;;;;;;20482643;28;20216;-71
2021/03/21 04:30:56;;;;;;;0.20;0.13;;;6.50;99.90;;;;;;20528490;28;20919;-71
2021/03/21 04:41:01;;;;;;;0.63;0.63;;;6.50;99.90;;;;;;20533933;28;20696;-71
2021/03/21 04:51:11;;;;;;;1.20;0.77;;;6.50;99.90;;;;;;20545158;28;20937;-71
2021/03/21 05:01:17;;;;;;;0.37;0.27;;;6.30;99.90;;;;;;20543350;28;20228;-71
2021/03/21 05:11:24;;;;;;;0.20;0.10;;;6.00;99.90;;;;;;20543151;28;20387;-72
2021/03/21 05:21:40;;;;;;;2.00;1.10;;;6.40;99.90;;;;;;20501856;28;20599;-72
2021/03/21 05:31:43;;;;;;;0.30;0.30;;;6.60;99.90;;;;;;20464765;28;20224;-72
2021/03/21 05:42:31;;;;;;;0.70;0.60;;;6.50;99.90;;;;;;20463149;28;20197;-72
2021/03/21 05:53:03;;;;;;;0.37;0.37;;;6.40;99.90;;;;;;20278933;29;20754;-72
2021/03/21 06:03:52;;;;;;;5.60;1.23;;;6.30;99.90;;;;;;20295412;29;20305;-73
2021/03/21 06:14:56;;;;;;;0.40;0.40;;;6.10;99.90;;;;;;20276540;29;20300;-73
2021/03/21 06:25:18;;;;;;;0.30;0.20;;;6.00;99.90;;;;;;20460159;28;21011;-71
2021/03/21 06:35:42;;;;;;;0.43;0.43;;;6.10;99.90;;;;;;20526407;28;20717;-71
2021/03/21 06:46:01;;;;;;;0.20;0.20;;;6.20;99.90;;;;;;20536592;28;20650;-73
2021/03/21 06:56:33;;;;;;;0.20;0.17;;;6.40;99.90;;;;;;20536233;28;20224;-72
2021/03/21 07:07:18;;;;;;;1.10;1.00;;;6.70;99.90;;;;;;20536950;28;20579;-73
2021/03/21 07:17:55;;;;;;;0.43;0.43;;;6.90;99.90;;;;;;20531728;28;20224;-72
2021/03/21 07:28:14;;;;;;;0.67;0.50;;;7.20;99.90;;;;;;20536600;28;20278;-71
2021/03/21 07:38:29;;;;;;;2.83;0.77;;;7.50;99.90;;;;;;20535558;28;20208;-70
2021/03/21 07:48:41;;;;;;;1.00;0.57;;;7.80;99.90;;;;;;20535376;28;20226;-72
2021/03/21 07:58:50;;;;;;;0.30;0.30;;;8.20;99.90;;;;;;20532731;28;20291;-73
2021/03/21 08:09:06;;;;;;;1.23;1.07;;;8.70;99.90;;;;;;20531729;28;20235;-72
2021/03/21 08:19:13;;;;;;;0.30;0.30;;;9.30;99.90;;;;;;20524939;28;20196;-71
2021/03/21 08:29:19;;;;;;;0.67;0.67;;;9.80;99.90;;;;;;20467609;28;20331;-74
2021/03/21 08:39:31;;;;;;;0.20;0.20;;;10.00;99.90;;;;;;20467062;28;20348;-71
2021/03/21 08:49:37;;;;;;;1.17;0.60;;;10.60;99.90;;;;;;20464116;29;20294;-71
2021/03/21 08:59:45;;;;;;;1.60;0.50;;;11.00;99.90;;;;;;20465220;28;20201;-71
2021/03/21 09:10:19;;;;;;;0.60;0.57;;;11.30;99.90;;;;;;20463522;28;20242;-71
2021/03/21 09:20:23;;;;;;;1.60;0.70;;;12.00;99.90;;;;;;20490969;28;20204;-71
2021/03/21 09:30:38;;;;;;;0.20;0.10;;;12.10;99.90;;;;;;20545379;28;20226;-71
2021/03/21 09:40:45;;;;;;;5.57;0.53;;;12.40;99.90;;;;;;20539365;28;20262;-71
2021/03/21 09:50:56;;;;;;;0.63;0.47;;;12.80;99.90;;;;;;20540500;28;20375;-71
2021/03/21 10:01:06;;;;;;;0.40;0.30;;;13.10;99.90;;;;;;20528210;28;20224;-71
2021/03/21 10:11:12;;;;;;;0.60;0.60;;;13.10;99.90;;;;;;20496270;28;20222;-74
2021/03/21 10:21:39;;;;;;;1.43;0.60;;;13.70;99.90;;;;;;20494868;28;20446;-71
2021/03/21 10:31:42;;;;;;;0.30;0.30;;;14.30;99.90;;;;;;20486037;28;20340;-73
2021/03/21 10:41:59;;;;;;;0.33;0.30;;;14.40;99.90;;;;;;20494555;28;20324;-73
2021/03/21 10:52:22;;;;;;;6.97;1.23;;;14.50;99.90;;;;;;20492990;28;20647;-73
2021/03/21 11:02:26;;;;;;;3.47;0.63;;;15.70;99.90;;;;;;20463946;28;20491;-71
2021/03/21 11:12:31;;;;;;;1.33;0.77;;;15.60;99.90;;;;;;20453797;28;20234;-69
2021/03/21 11:22:39;;;;;;;2.13;1.73;;;16.10;99.90;;;;;;20499385;28;20568;-72
2021/03/21 11:32:46;;;;;;;1.63;1.03;;;16.50;99.90;;;;;;20461334;28;20696;-71
2021/03/21 11:43:09;;;;;;;0.80;0.60;;;17.40;99.90;;;;;;20449851;29;20264;-74
2021/03/21 11:53:17;;;;;;;3.03;1.77;;;17.60;99.90;;;;;;20452647;28;20593;-73
2021/03/21 12:03:23;;;;;;;1.10;0.97;;;17.70;99.90;;;;;;20449023;28;20236;-70
2021/03/21 12:13:41;;;;;;;1.13;1.03;;;17.30;99.90;;;;;;20450303;28;20913;-70
2021/03/21 12:23:51;;;;;;;9.43;1.00;;;17.30;99.90;;;;;;20506011;28;20609;-74
2021/03/21 12:33:54;;;;;;;0.97;0.87;;;18.40;99.90;;;;;;20532151;28;20543;-71
2021/03/21 12:44:23;;;;;;;6.70;0.57;;;18.50;99.90;;;;;;20536865;28;20524;-71
2021/03/21 12:54:26;;;;;;;0.80;0.80;;;18.60;99.90;;;;;;20538294;28;20795;-71
2021/03/21 13:04:32;;;;;;;2.50;0.90;;;18.30;99.90;;;;;;20538726;28;20227;-71
2021/03/21 13:14:35;;;;;;;14.17;0.97;;;18.60;99.90;;;;;;20541352;28;20338;-72
2021/03/21 13:24:39;;;;;;;0.57;0.37;;;19.10;99.90;;;;;;20475629;28;20205;-73
2021/03/21 13:34:42;;;;;;;0.70;0.60;;;19.30;99.90;;;;;;20460855;28;20615;-71
2021/03/21 13:44:54;;;;;;;1.33;0.57;;;19.20;99.90;;;;;;20461681;28;20207;-70
2021/03/21 13:54:57;;;;;;;0.97;0.83;;;20.40;99.90;;;;;;20458926;29;20228;-70
2021/03/21 14:05:01;;;;;;;0.90;0.80;;;20.80;99.90;;;;;;20456376;29;20301;-72
2021/03/21 14:15:19;;;;;;;0.83;0.80;;;21.00;99.90;;;;;;20463791;28;20307;-71
2021/03/21 14:25:23;;;;;;;0.63;0.47;;;20.80;99.90;;;;;;20521033;28;20212;-70
2021/03/21 14:35:27;;;;;;;0.80;0.63;;;21.40;99.90;;;;;;20475378;28;20239;-70
2021/03/21 14:45:38;;;;;;;1.27;0.67;;;22.00;99.90;;;;;;20471337;28;20664;-70
2021/03/21 14:55:44;;;;;;;1.23;1.03;;;21.70;99.90;;;;;;20457353;29;20256;-71
2021/03/21 15:05:48;;;;;;;0.33;0.33;;;21.80;99.90;;;;;;20454279;29;20720;-71
2021/03/21 15:16:02;;;;;;;0.37;0.33;;;22.30;99.90;;;;;;20452867;29;20232;-70
2021/03/21 15:26:09;;;;;;;0.37;0.37;;;21.60;99.90;;;;;;20528050;28;20204;-70
2021/03/21 15:36:12;;;;;;;0.93;0.50;;;21.70;99.90;;;;;;20527795;28;20709;-69
2021/03/21 15:46:27;;;;;;;0.50;0.50;;;21.50;99.90;;;;;;20530915;28;20234;-71
2021/03/21 15:56:30;;;;;;;0.50;0.40;;;21.50;99.90;;;;;;20509029;28;20224;-70
2021/03/21 16:06:34;;;;;;;3.90;1.23;;;21.00;99.90;;;;;;20487334;28;20219;-71
2021/03/21 16:16:45;;;;;;;8.37;0.87;;;20.30;99.90;;;;;;20490075;28;20630;-72
2021/03/21 16:26:49;;;;;;;0.67;0.40;;;18.40;99.90;;;;;;20525805;28;20181;-71
2021/03/21 16:36:52;;;;;;;0.30;0.30;;;17.60;99.90;;;;;;20495521;28;20217;-73
2021/03/21 16:47:10;;;;;;;0.47;0.33;;;16.60;99.90;;;;;;20467041;28;20205;-72
2021/03/21 16:57:16;;;;;;;0.73;0.57;;;16.40;99.90;;;;;;20489340;28;20241;-72
2021/03/21 17:07:20;;;;;;;4.40;0.40;;;16.00;99.90;;;;;;20466566;28;20299;-71
2021/03/21 17:17:31;;;;;;;0.77;0.50;;;15.80;99.90;;;;;;20473180;28;20242;-71
2021/03/21 17:27:36;;;;;;;1.30;0.73;;;15.20;99.90;;;;;;20541462;28;20203;-71
2021/03/21 17:37:39;;;;;;;0.87;0.30;;;14.90;99.90;;;;;;20542567;28;20278;-79
2021/03/21 17:47:57;;;;;;;0.37;0.30;;;14.00;99.90;;;;;;20502221;28;20852;-69
2021/03/21 17:58:00;;;;;;;1.30;0.70;;;13.70;99.90;;;;;;20473023;28;20228;-73
2021/03/21 18:08:04;;;;;;;0.67;0.60;;;13.70;99.90;;;;;;20497457;28;20375;-71
2021/03/21 18:18:19;;;;;;;1.10;1.00;;;13.50;99.90;;;;;;20536977;28;20764;-70
2021/03/21 18:28:24;;;;;;;0.93;0.60;;;12.90;99.90;;;;;;20535737;28;20204;-70
2021/03/21 18:38:28;;;;;;;1.80;1.17;;;12.60;99.90;;;;;;20536468;28;20219;-71
2021/03/21 18:48:50;;;;;;;0.60;0.50;;;11.90;99.90;;;;;;20460779;28;21089;-69
2021/03/21 18:58:53;;;;;;;2.33;1.10;;;11.20;99.90;;;;;;20487102;28;20258;-71
2021/03/21 19:08:56;;;;;;;2.73;1.27;;;11.20;99.90;;;;;;20534729;28;20752;-69
2021/03/21 19:19:06;;;;;;;2.10;1.10;;;10.60;99.90;;;;;;20511699;28;20208;-70
2021/03/21 19:29:08;;;;;;;1.80;1.00;;;10.40;99.90;;;;;;20453556;29;20207;-70
2021/03/21 19:39:12;;;;;;;0.67;0.60;;;10.40;99.90;;;;;;20449363;28;20205;-68
2021/03/21 19:49:29;;;;;;;0.30;0.30;;;10.10;99.90;;;;;;20449447;28;20371;-69
2021/03/21 19:59:33;;;;;;;5.20;1.17;;;10.20;99.90;;;;;;20450974;28;20542;-67
2021/03/21 20:09:35;;;;;;;2.73;0.70;;;10.00;99.90;;;;;;20453159;28;20223;-67
2021/03/21 20:19:52;;;;;;;1.37;0.93;;;10.10;99.90;;;;;;20500243;28;20215;-69
2021/03/21 20:29:55;;;;;;;0.70;0.63;;;9.70;99.90;;;;;;20532981;28;20423;-68
2021/03/21 20:39:58;;;;;;;4.13;1.90;;;10.00;99.90;;;;;;20474296;28;20667;-67
2021/03/21 20:50:15;;;;;;;1.20;1.13;;;9.80;99.90;;;;;;20464543;28;20247;-69
2021/03/21 21:00:23;;;;;;;0.30;0.30;;;9.80;99.90;;;;;;20465376;28;20307;-69
2021/03/21 21:10:29;;;;;;;1.30;0.50;;;9.50;99.90;;;;;;20468144;28;20212;-69
2021/03/21 21:20:44;;;;;;;0.60;0.60;;;9.30;99.90;;;;;;20504454;28;20192;-69
2021/03/21 21:30:47;;;;;;;0.90;0.90;;;9.20;99.90;;;;;;20505669;28;20228;-70
2021/03/21 21:40:51;;;;;;;0.30;0.27;;;9.40;99.90;;;;;;20498617;28;20200;-69
2021/03/21 21:51:10;;;;;;;0.37;0.33;;;9.30;99.90;;;;;;20535653;28;20223;-69
2021/03/21 22:01:14;;;;;;;2.20;1.43;;;9.20;99.90;;;;;;20540311;28;20232;-70
2021/03/21 22:11:17;;;;;;;0.20;0.10;;;9.30;99.90;;;;;;20539353;28;20230;-71
2021/03/21 22:21:30;;;;;;;1.00;0.70;;;9.10;99.90;;;;;;20538456;28;20191;-71
2021/03/21 22:31:35;;;;;;;0.30;0.30;;;9.10;99.90;;;;;;20535996;28;20692;-70
2021/03/21 22:41:40;;;;;;;0.30;0.30;;;9.20;99.90;;;;;;20536280;28;20196;-72
2021/03/21 22:51:53;;;;;;;0.27;0.20;;;9.20;99.90;;;;;;20535387;28;20732;-70
2021/03/21 23:01:56;;;;;;;0.33;0.33;;;8.90;99.90;;;;;;20535512;28;20537;-71
2021/03/21 23:11:59;;;;;;;0.30;0.20;;;8.80;99.90;;;;;;20534872;28;20547;-71
2021/03/21 23:22:19;;;;;;;0.47;0.47;;;9.10;99.90;;;;;;20487453;28;20196;-71
2021/03/21 23:32:21;;;;;;;1.13;1.03;;;9.30;99.90;;;;;;20468617;28;20568;-71
2021/03/21 23:42:26;;;;;;;0.93;0.87;;;9.40;99.90;;;;;;20536809;28;20583;-71
2021/03/21 23:52:41;;;;;;;2.23;0.57;;;9.40;99.90;;;;;;20532272;28;20735;-71
